CES420 RJBB-VHHH
Flight info
| Callsign | CES420 |
|---|---|
| Flight time | N/A |
| Altitude | 40000 |
| Route | OBLUR1 OBLUR Y236 IVROG Y340 RUSUD Y75 IGBOD Y34 HKC Y50 IGMON A1 ELATO V522 ABBEY ABBEY4A |
| Aircraft | A359/H-SDE2E3GHIJ3J4J5LM1ORWXY/LB1D1 |
Departure
| Time | 2026-05-06 00:20 |
|---|---|
| Airport | Kansai International Airport (RJBB) |
Arrival
| Time | N/A |
|---|---|
| Airport | Hong Kong International Airport (VHHH) |
| Time | Latitude | Longitude | Altitude | Speed | Heading |
|---|---|---|---|---|---|
| 2026-05-06 00:02 | 34.43030 | 135.23741 | 25 ft | 0 kts | 140° |
| 2026-05-06 00:09 | 34.43039 | 135.23733 | 31 ft | 4 kts | 141° |
| 2026-05-06 00:10 | 34.43061 | 135.23715 | 31 ft | 4 kts | 158° |
| 2026-05-06 00:10 | 34.43086 | 135.23709 | 29 ft | 4 kts | 192° |
| 2026-05-06 00:10 | 34.43107 | 135.23721 | 31 ft | 2 kts | 230° |
| 2026-05-06 00:10 | 34.43108 | 135.23723 | 31 ft | 0 kts | 231° |
| 2026-05-06 00:13 | 34.43105 | 135.23719 | 31 ft | 4 kts | 230° |
| 2026-05-06 00:13 | 34.43061 | 135.23655 | 28 ft | 15 kts | 231° |
| 2026-05-06 00:14 | 34.43021 | 135.23512 | 29 ft | 21 kts | 266° |
| 2026-05-06 00:14 | 34.42986 | 135.23344 | 28 ft | 6 kts | 291° |
| 2026-05-06 00:14 | 34.43008 | 135.23314 | 26 ft | 7 kts | 316° |
| 2026-05-06 00:14 | 34.43062 | 135.23260 | 29 ft | 15 kts | 321° |
| 2026-05-06 00:15 | 34.43169 | 135.23156 | 31 ft | 23 kts | 321° |
| 2026-05-06 00:15 | 34.43312 | 135.23018 | 35 ft | 30 kts | 321° |
| 2026-05-06 00:15 | 34.43492 | 135.22841 | 35 ft | 35 kts | 321° |
| 2026-05-06 00:15 | 34.43689 | 135.22649 | 35 ft | 22 kts | 321° |
| 2026-05-06 00:16 | 34.43810 | 135.22531 | 35 ft | 27 kts | 321° |
| 2026-05-06 00:16 | 34.43844 | 135.22458 | 35 ft | 8 kts | 270° |
| 2026-05-06 00:16 | 34.43815 | 135.22390 | 35 ft | 13 kts | 231° |
| 2026-05-06 00:16 | 34.43735 | 135.22270 | 35 ft | 23 kts | 231° |
| 2026-05-06 00:17 | 34.43614 | 135.22092 | 35 ft | 32 kts | 230° |
| 2026-05-06 00:17 | 34.43462 | 135.21865 | 35 ft | 38 kts | 231° |
| 2026-05-06 00:17 | 34.43280 | 135.21596 | 34 ft | 44 kts | 230° |
| 2026-05-06 00:17 | 34.43074 | 135.21294 | 35 ft | 49 kts | 232° |
| 2026-05-06 00:18 | 34.42853 | 135.20962 | 35 ft | 52 kts | 231° |
| 2026-05-06 00:18 | 34.42755 | 135.20784 | 35 ft | 15 kts | 264° |
| 2026-05-06 00:18 | 34.42811 | 135.20690 | 31 ft | 16 kts | 320° |
| 2026-05-06 00:18 | 34.42875 | 135.20650 | 31 ft | 0 kts | 12° |
| 2026-05-06 00:19 | 34.42878 | 135.20652 | 31 ft | 4 kts | 16° |
| 2026-05-06 00:19 | 34.42922 | 135.20713 | 31 ft | 22 kts | 51° |
| 2026-05-06 00:19 | 34.43177 | 135.21096 | 36 ft | 94 kts | 51° |
| 2026-05-06 00:19 | 34.43725 | 135.21910 | 38 ft | 154 kts | 50° |
| 2026-05-06 00:20 | 34.44440 | 135.22966 | 645 ft | 158 kts | 50° |
| 2026-05-06 00:20 | 34.45174 | 135.23970 | 1423 ft | 165 kts | 49° |
| 2026-05-06 00:20 | 34.46219 | 135.24716 | 1749 ft | 190 kts | 13° |
| 2026-05-06 00:20 | 34.47569 | 135.24372 | 2064 ft | 212 kts | 325° |
| 2026-05-06 00:21 | 34.48415 | 135.22908 | 2504 ft | 223 kts | 281° |
| 2026-05-06 00:21 | 34.48269 | 135.21037 | 2967 ft | 233 kts | 242° |
| 2026-05-06 00:21 | 34.47348 | 135.19364 | 3539 ft | 245 kts | 235° |
| 2026-05-06 00:21 | 34.46620 | 135.17466 | 4339 ft | 249 kts | 246° |
| 2026-05-06 00:22 | 34.46022 | 135.15508 | 5196 ft | 251 kts | 249° |
| 2026-05-06 00:22 | 34.45477 | 135.13492 | 6104 ft | 252 kts | 250° |
| 2026-05-06 00:22 | 34.44966 | 135.11456 | 7034 ft | 253 kts | 251° |
| 2026-05-06 00:22 | 34.44465 | 135.09380 | 7819 ft | 260 kts | 252° |
| 2026-05-06 00:23 | 34.43967 | 135.07265 | 8586 ft | 267 kts | 252° |
| 2026-05-06 00:23 | 34.43456 | 135.05066 | 9404 ft | 274 kts | 252° |
| 2026-05-06 00:23 | 34.42936 | 135.02811 | 10185 ft | 282 kts | 253° |
| 2026-05-06 00:23 | 34.42392 | 135.00444 | 10619 ft | 302 kts | 253° |
| 2026-05-06 00:24 | 34.41807 | 134.97902 | 10973 ft | 323 kts | 253° |
| 2026-05-06 00:24 | 34.41186 | 134.95201 | 11327 ft | 342 kts | 253° |
| 2026-05-06 00:24 | 34.40533 | 134.92411 | 11845 ft | 353 kts | 252° |
| 2026-05-06 00:24 | 34.39541 | 134.89655 | 12559 ft | 359 kts | 241° |
| 2026-05-06 00:25 | 34.38307 | 134.87010 | 13371 ft | 363 kts | 239° |
| 2026-05-06 00:25 | 34.37030 | 134.84353 | 14162 ft | 366 kts | 239° |
| 2026-05-06 00:25 | 34.35745 | 134.81675 | 14919 ft | 368 kts | 239° |
| 2026-05-06 00:25 | 34.34460 | 134.78992 | 15794 ft | 368 kts | 239° |
| 2026-05-06 00:26 | 34.33174 | 134.76307 | 16621 ft | 369 kts | 240° |
| 2026-05-06 00:26 | 34.31895 | 134.73632 | 17399 ft | 370 kts | 240° |
| 2026-05-06 00:26 | 34.30601 | 134.70923 | 18161 ft | 372 kts | 240° |
| 2026-05-06 00:26 | 34.29307 | 134.68216 | 18935 ft | 370 kts | 240° |
| 2026-05-06 00:27 | 34.27901 | 134.65617 | 19744 ft | 368 kts | 234° |
| 2026-05-06 00:27 | 34.26313 | 134.63245 | 20532 ft | 366 kts | 232° |
| 2026-05-06 00:27 | 34.24675 | 134.60893 | 21319 ft | 365 kts | 231° |
| 2026-05-06 00:27 | 34.23021 | 134.58525 | 21897 ft | 369 kts | 232° |
| 2026-05-06 00:28 | 34.21364 | 134.56157 | 22663 ft | 368 kts | 232° |
| 2026-05-06 00:28 | 34.19737 | 134.53820 | 23472 ft | 366 kts | 232° |
| 2026-05-06 00:28 | 34.18102 | 134.51479 | 24311 ft | 360 kts | 233° |
| 2026-05-06 00:28 | 34.16478 | 134.49152 | 24872 ft | 362 kts | 233° |
| 2026-05-06 00:29 | 34.14857 | 134.46815 | 25314 ft | 367 kts | 233° |
| 2026-05-06 00:29 | 34.13202 | 134.44437 | 25801 ft | 371 kts | 232° |
| 2026-05-06 00:29 | 34.11545 | 134.42060 | 26335 ft | 374 kts | 232° |
| 2026-05-06 00:29 | 34.09858 | 134.39647 | 26766 ft | 378 kts | 232° |
| 2026-05-06 00:30 | 34.08151 | 134.37205 | 27257 ft | 381 kts | 232° |
| 2026-05-06 00:30 | 34.06443 | 134.34744 | 27845 ft | 381 kts | 232° |
| 2026-05-06 00:30 | 34.04759 | 134.32297 | 28345 ft | 384 kts | 231° |
| 2026-05-06 00:30 | 34.03052 | 134.29809 | 28800 ft | 387 kts | 231° |
| 2026-05-06 00:31 | 34.01322 | 134.27288 | 29222 ft | 391 kts | 231° |
| 2026-05-06 00:31 | 33.99577 | 134.24754 | 29678 ft | 394 kts | 231° |
| 2026-05-06 00:31 | 33.97825 | 134.22197 | 30110 ft | 397 kts | 231° |
| 2026-05-06 00:31 | 33.96052 | 134.19617 | 30513 ft | 400 kts | 231° |
| 2026-05-06 00:32 | 33.94259 | 134.17030 | 30943 ft | 400 kts | 231° |
| 2026-05-06 00:32 | 33.92477 | 134.14461 | 31430 ft | 400 kts | 231° |
| 2026-05-06 00:32 | 33.90712 | 134.11916 | 31820 ft | 401 kts | 231° |
| 2026-05-06 00:32 | 33.88912 | 134.09329 | 32180 ft | 402 kts | 231° |
| 2026-05-06 00:33 | 33.87109 | 134.06738 | 32517 ft | 403 kts | 231° |
| 2026-05-06 00:33 | 33.85306 | 134.04137 | 32909 ft | 403 kts | 231° |
| 2026-05-06 00:33 | 33.83516 | 134.01543 | 33426 ft | 400 kts | 231° |
| 2026-05-06 00:33 | 33.81766 | 133.99030 | 34058 ft | 394 kts | 231° |
| 2026-05-06 00:34 | 33.80015 | 133.96515 | 34572 ft | 390 kts | 231° |
| 2026-05-06 00:34 | 33.78279 | 133.94012 | 34881 ft | 390 kts | 231° |
| 2026-05-06 00:34 | 33.76546 | 133.91482 | 35055 ft | 393 kts | 232° |
| 2026-05-06 00:34 | 33.74861 | 133.88910 | 35417 ft | 391 kts | 234° |
| 2026-05-06 00:35 | 33.73265 | 133.86269 | 35662 ft | 391 kts | 236° |
| 2026-05-06 00:35 | 33.71702 | 133.83605 | 36001 ft | 388 kts | 236° |
| 2026-05-06 00:35 | 33.70158 | 133.80938 | 36203 ft | 391 kts | 237° |
| 2026-05-06 00:35 | 33.68621 | 133.78257 | 36548 ft | 388 kts | 236° |
| 2026-05-06 00:36 | 33.67068 | 133.75608 | 36860 ft | 388 kts | 236° |
| 2026-05-06 00:36 | 33.65500 | 133.72978 | 37176 ft | 386 kts | 236° |
| 2026-05-06 00:36 | 33.64010 | 133.70297 | 37469 ft | 385 kts | 240° |
| 2026-05-06 00:36 | 33.62674 | 133.67558 | 37759 ft | 384 kts | 241° |
| 2026-05-06 00:37 | 33.61359 | 133.64772 | 38017 ft | 383 kts | 242° |
| 2026-05-06 00:37 | 33.60064 | 133.61982 | 38348 ft | 382 kts | 242° |
| 2026-05-06 00:37 | 33.58778 | 133.59193 | 38703 ft | 380 kts | 242° |
| 2026-05-06 00:37 | 33.57519 | 133.56458 | 38947 ft | 379 kts | 242° |
| 2026-05-06 00:38 | 33.56240 | 133.53687 | 39078 ft | 380 kts | 242° |
| 2026-05-06 00:38 | 33.54953 | 133.50903 | 39213 ft | 381 kts | 242° |
| 2026-05-06 00:38 | 33.53661 | 133.48118 | 39324 ft | 382 kts | 242° |
| 2026-05-06 00:39 | 33.51057 | 133.42519 | 39574 ft | 384 kts | 242° |
| 2026-05-06 00:39 | 33.49753 | 133.39722 | 39709 ft | 385 kts | 242° |
| 2026-05-06 00:39 | 33.48457 | 133.36942 | 39824 ft | 386 kts | 242° |
| 2026-05-06 00:39 | 33.47145 | 133.34128 | 39943 ft | 387 kts | 242° |
| 2026-05-06 00:40 | 33.45830 | 133.31311 | 40041 ft | 388 kts | 242° |
| 2026-05-06 00:40 | 33.44515 | 133.28490 | 40174 ft | 389 kts | 242° |
| 2026-05-06 00:40 | 33.43190 | 133.25655 | 40170 ft | 390 kts | 242° |
| 2026-05-06 00:41 | 33.40528 | 133.19984 | 40199 ft | 390 kts | 242° |
| 2026-05-06 00:41 | 33.37872 | 133.14364 | 40201 ft | 391 kts | 242° |
| 2026-05-06 00:42 | 33.35199 | 133.08693 | 40189 ft | 390 kts | 242° |
| 2026-05-06 00:42 | 33.32556 | 133.03055 | 40189 ft | 390 kts | 242° |
| 2026-05-06 00:43 | 33.29900 | 132.97383 | 40188 ft | 390 kts | 242° |
| 2026-05-06 00:43 | 33.27231 | 132.91710 | 40190 ft | 391 kts | 242° |
| 2026-05-06 00:44 | 33.24578 | 132.86087 | 40191 ft | 391 kts | 241° |
| 2026-05-06 00:44 | 33.21895 | 132.80431 | 40178 ft | 391 kts | 242° |
| 2026-05-06 00:45 | 33.19209 | 132.74772 | 40180 ft | 391 kts | 242° |
| 2026-05-06 00:45 | 33.16406 | 132.69189 | 40180 ft | 392 kts | 238° |
| 2026-05-06 00:46 | 33.13326 | 132.63832 | 40179 ft | 393 kts | 237° |
| 2026-05-06 00:46 | 33.10176 | 132.58492 | 40192 ft | 393 kts | 237° |
| 2026-05-06 00:47 | 33.07011 | 132.53145 | 40176 ft | 394 kts | 237° |
| 2026-05-06 00:47 | 33.03873 | 132.47841 | 40170 ft | 393 kts | 237° |
| 2026-05-06 00:48 | 33.01250 | 132.43406 | 40171 ft | 393 kts | 237° |
| 2026-05-06 00:48 | 32.98086 | 132.38062 | 40173 ft | 393 kts | 237° |
| 2026-05-06 00:49 | 32.94746 | 132.32916 | 40172 ft | 395 kts | 233° |
| 2026-05-06 00:49 | 32.91149 | 132.27934 | 40172 ft | 395 kts | 232° |
| 2026-05-06 00:50 | 32.87591 | 132.22988 | 40171 ft | 395 kts | 232° |
| 2026-05-06 00:50 | 32.84045 | 132.17969 | 40179 ft | 395 kts | 233° |
| 2026-05-06 00:51 | 32.80519 | 132.12943 | 40173 ft | 396 kts | 233° |
| 2026-05-06 00:51 | 32.77010 | 132.07943 | 40171 ft | 396 kts | 233° |
| 2026-05-06 00:52 | 32.73472 | 132.02913 | 40175 ft | 396 kts | 233° |
| 2026-05-06 00:52 | 32.69955 | 131.97922 | 40175 ft | 396 kts | 232° |
| 2026-05-06 00:53 | 32.66410 | 131.92897 | 40167 ft | 396 kts | 232° |
| 2026-05-06 00:53 | 32.62869 | 131.87887 | 40146 ft | 396 kts | 233° |
| 2026-05-06 00:54 | 32.59349 | 131.82912 | 40166 ft | 396 kts | 233° |
| 2026-05-06 00:54 | 32.55806 | 131.77906 | 40169 ft | 396 kts | 233° |
| 2026-05-06 00:55 | 32.52262 | 131.72906 | 40173 ft | 396 kts | 232° |
| 2026-05-06 00:55 | 32.48729 | 131.67930 | 40159 ft | 396 kts | 232° |
| 2026-05-06 00:56 | 32.45172 | 131.62927 | 40160 ft | 395 kts | 232° |
| 2026-05-06 00:56 | 32.41644 | 131.57972 | 40160 ft | 395 kts | 232° |
| 2026-05-06 00:57 | 32.38093 | 131.52992 | 40098 ft | 398 kts | 232° |
| 2026-05-06 00:57 | 32.34522 | 131.47967 | 40153 ft | 397 kts | 232° |
| 2026-05-06 00:58 | 32.30972 | 131.43012 | 40160 ft | 396 kts | 232° |
| 2026-05-06 00:58 | 32.27407 | 131.38039 | 40159 ft | 396 kts | 232° |
| 2026-05-06 00:59 | 32.23849 | 131.33071 | 40152 ft | 397 kts | 232° |
| 2026-05-06 00:59 | 32.20293 | 131.28110 | 40161 ft | 396 kts | 232° |
| 2026-05-06 01:00 | 32.16723 | 131.23146 | 40161 ft | 396 kts | 232° |
| 2026-05-06 01:00 | 32.13156 | 131.18183 | 40166 ft | 396 kts | 232° |
| 2026-05-06 01:01 | 32.09609 | 131.13258 | 40146 ft | 396 kts | 232° |
| 2026-05-06 01:01 | 32.06031 | 131.08301 | 40155 ft | 397 kts | 231° |
| 2026-05-06 01:02 | 32.02442 | 131.03335 | 40155 ft | 398 kts | 231° |
| 2026-05-06 01:02 | 31.98846 | 130.98364 | 40146 ft | 398 kts | 231° |
| 2026-05-06 01:03 | 31.95245 | 130.93386 | 40133 ft | 397 kts | 231° |
| 2026-05-06 01:03 | 31.91673 | 130.88457 | 40139 ft | 398 kts | 231° |
| 2026-05-06 01:04 | 31.88063 | 130.83477 | 40131 ft | 399 kts | 231° |
| 2026-05-06 01:04 | 31.84447 | 130.78499 | 40129 ft | 399 kts | 231° |
| 2026-05-06 01:05 | 31.80860 | 130.73571 | 40131 ft | 399 kts | 231° |
| 2026-05-06 01:05 | 31.77249 | 130.68611 | 40130 ft | 398 kts | 231° |
| 2026-05-06 01:06 | 31.73638 | 130.63661 | 40131 ft | 398 kts | 231° |
| 2026-05-06 01:06 | 31.70047 | 130.58747 | 40096 ft | 398 kts | 231° |
| 2026-05-06 01:07 | 31.66538 | 130.53690 | 40131 ft | 397 kts | 233° |
| 2026-05-06 01:07 | 31.63231 | 130.48544 | 40127 ft | 396 kts | 234° |
| 2026-05-06 01:08 | 31.59893 | 130.43367 | 40123 ft | 398 kts | 233° |
| 2026-05-06 01:08 | 31.56512 | 130.38202 | 40122 ft | 399 kts | 233° |
| 2026-05-06 01:09 | 31.53131 | 130.33077 | 40116 ft | 399 kts | 233° |
| 2026-05-06 01:09 | 31.49724 | 130.27925 | 40116 ft | 399 kts | 233° |
| 2026-05-06 01:10 | 31.46331 | 130.22798 | 40117 ft | 400 kts | 233° |
| 2026-05-06 01:10 | 31.42902 | 130.17621 | 40105 ft | 401 kts | 233° |
| 2026-05-06 01:11 | 31.39468 | 130.12444 | 40109 ft | 401 kts | 233° |
| 2026-05-06 01:11 | 31.36042 | 130.07285 | 40111 ft | 401 kts | 233° |
| 2026-05-06 01:12 | 31.32625 | 130.02146 | 40122 ft | 402 kts | 233° |
| 2026-05-06 01:12 | 31.29170 | 129.96957 | 40086 ft | 404 kts | 232° |
| 2026-05-06 01:13 | 31.25730 | 129.91807 | 40102 ft | 404 kts | 232° |
| 2026-05-06 01:13 | 31.22273 | 129.86626 | 40105 ft | 403 kts | 232° |
| 2026-05-06 01:14 | 31.17084 | 129.78861 | 40104 ft | 404 kts | 232° |
| 2026-05-06 01:14 | 31.13608 | 129.73670 | 40098 ft | 406 kts | 232° |
| 2026-05-06 01:15 | 31.10148 | 129.68513 | 40091 ft | 406 kts | 232° |
| 2026-05-06 01:15 | 31.06661 | 129.63322 | 40094 ft | 406 kts | 232° |
| 2026-05-06 01:16 | 31.03189 | 129.58160 | 40094 ft | 406 kts | 232° |
| 2026-05-06 01:16 | 30.99693 | 129.52968 | 40085 ft | 407 kts | 232° |
| 2026-05-06 01:17 | 30.96187 | 129.47770 | 40089 ft | 407 kts | 232° |
| 2026-05-06 01:17 | 30.92685 | 129.42584 | 40087 ft | 407 kts | 232° |
| 2026-05-06 01:18 | 30.89192 | 129.37418 | 40087 ft | 407 kts | 232° |
| 2026-05-06 01:18 | 30.85691 | 129.32245 | 40088 ft | 408 kts | 232° |
| 2026-05-06 01:19 | 30.82171 | 129.27053 | 40087 ft | 409 kts | 232° |
| 2026-05-06 01:19 | 30.78663 | 129.21886 | 40084 ft | 409 kts | 232° |
| 2026-05-06 01:20 | 30.75158 | 129.16681 | 40082 ft | 409 kts | 233° |
| 2026-05-06 01:20 | 30.71720 | 129.11421 | 40091 ft | 407 kts | 233° |
| 2026-05-06 01:21 | 30.68291 | 129.06166 | 40092 ft | 408 kts | 233° |
| 2026-05-06 01:21 | 30.64842 | 129.00911 | 40082 ft | 408 kts | 233° |
| 2026-05-06 01:22 | 30.61408 | 128.95699 | 40082 ft | 408 kts | 233° |
| 2026-05-06 01:22 | 30.57953 | 128.90466 | 40089 ft | 407 kts | 233° |
| 2026-05-06 01:23 | 30.54507 | 128.85254 | 40082 ft | 408 kts | 233° |
| 2026-05-06 01:23 | 30.51062 | 128.80048 | 40082 ft | 409 kts | 233° |
| 2026-05-06 01:24 | 30.47596 | 128.74816 | 40082 ft | 409 kts | 233° |
| 2026-05-06 01:24 | 30.44121 | 128.69578 | 40084 ft | 408 kts | 233° |
| 2026-05-06 01:25 | 30.40682 | 128.64402 | 40078 ft | 406 kts | 233° |
| 2026-05-06 01:25 | 30.37217 | 128.59193 | 40083 ft | 409 kts | 233° |
| 2026-05-06 01:26 | 30.33729 | 128.53956 | 40076 ft | 410 kts | 232° |
| 2026-05-06 01:26 | 30.30261 | 128.48757 | 40061 ft | 410 kts | 232° |
| 2026-05-06 01:27 | 30.26781 | 128.43546 | 40078 ft | 407 kts | 232° |
| 2026-05-06 01:27 | 30.23321 | 128.38371 | 40078 ft | 406 kts | 232° |
| 2026-05-06 01:28 | 30.19875 | 128.33224 | 40077 ft | 406 kts | 232° |
| 2026-05-06 01:28 | 30.16412 | 128.28060 | 40078 ft | 406 kts | 232° |
| 2026-05-06 01:29 | 30.12946 | 128.22896 | 40077 ft | 406 kts | 232° |
| 2026-05-06 01:29 | 30.09478 | 128.17735 | 40076 ft | 407 kts | 232° |
| 2026-05-06 01:30 | 30.06000 | 128.12568 | 40076 ft | 411 kts | 232° |
| 2026-05-06 01:30 | 30.02486 | 128.07353 | 40076 ft | 412 kts | 232° |
| 2026-05-06 01:31 | 29.98969 | 128.02141 | 40077 ft | 409 kts | 232° |
| 2026-05-06 01:31 | 29.95502 | 127.97009 | 40083 ft | 405 kts | 232° |
| 2026-05-06 01:32 | 29.92019 | 127.91861 | 40079 ft | 408 kts | 232° |
| 2026-05-06 01:32 | 29.88519 | 127.86694 | 40079 ft | 411 kts | 232° |
| 2026-05-06 01:33 | 29.84975 | 127.81516 | 40072 ft | 411 kts | 230° |
| 2026-05-06 01:33 | 29.81268 | 127.76531 | 40080 ft | 408 kts | 229° |
| 2026-05-06 01:34 | 29.78160 | 127.72445 | 40081 ft | 407 kts | 229° |
| 2026-05-06 01:34 | 29.73821 | 127.66687 | 40083 ft | 412 kts | 229° |
| 2026-05-06 01:35 | 29.70708 | 127.62525 | 40081 ft | 413 kts | 230° |
| 2026-05-06 01:35 | 29.66961 | 127.57508 | 40079 ft | 410 kts | 229° |
| 2026-05-06 01:36 | 29.63252 | 127.52550 | 40080 ft | 407 kts | 229° |
| 2026-05-06 01:36 | 29.59550 | 127.47609 | 40090 ft | 407 kts | 229° |
| 2026-05-06 01:37 | 29.55919 | 127.42630 | 40076 ft | 412 kts | 231° |
| 2026-05-06 01:37 | 29.52379 | 127.37430 | 40072 ft | 412 kts | 232° |
| 2026-05-06 01:38 | 29.48857 | 127.32246 | 40075 ft | 411 kts | 231° |
| 2026-05-06 01:38 | 29.45316 | 127.27100 | 40075 ft | 410 kts | 231° |
| 2026-05-06 01:39 | 29.41776 | 127.21989 | 40075 ft | 411 kts | 231° |
| 2026-05-06 01:39 | 29.38185 | 127.16818 | 40045 ft | 416 kts | 231° |
| 2026-05-06 01:40 | 29.34585 | 127.11637 | 40069 ft | 413 kts | 231° |
| 2026-05-06 01:40 | 29.31030 | 127.06528 | 40066 ft | 412 kts | 231° |
| 2026-05-06 01:41 | 29.27455 | 127.01395 | 40063 ft | 412 kts | 231° |
| 2026-05-06 01:41 | 29.23890 | 126.96282 | 40068 ft | 414 kts | 231° |
| 2026-05-06 01:42 | 29.20264 | 126.91090 | 40065 ft | 417 kts | 231° |
| 2026-05-06 01:42 | 29.16646 | 126.85914 | 40066 ft | 416 kts | 231° |
| 2026-05-06 01:43 | 29.13050 | 126.80776 | 40066 ft | 415 kts | 231° |
| 2026-05-06 01:43 | 29.09431 | 126.75612 | 40067 ft | 415 kts | 231° |
| 2026-05-06 01:44 | 29.05794 | 126.70430 | 40055 ft | 420 kts | 230° |
| 2026-05-06 01:44 | 29.02146 | 126.65237 | 40069 ft | 419 kts | 230° |
| 2026-05-06 01:45 | 28.98494 | 126.60047 | 40067 ft | 418 kts | 230° |
| 2026-05-06 01:45 | 28.94845 | 126.54913 | 40069 ft | 418 kts | 230° |
| 2026-05-06 01:46 | 28.91080 | 126.49849 | 40082 ft | 418 kts | 229° |
| 2026-05-06 01:46 | 28.87275 | 126.44773 | 40070 ft | 424 kts | 229° |
| 2026-05-06 01:47 | 28.83448 | 126.39643 | 40070 ft | 424 kts | 229° |
| 2026-05-06 01:47 | 28.79635 | 126.34515 | 40069 ft | 423 kts | 229° |
| 2026-05-06 01:48 | 28.75821 | 126.29388 | 40069 ft | 423 kts | 229° |
| 2026-05-06 01:48 | 28.72025 | 126.24293 | 40067 ft | 422 kts | 229° |
| 2026-05-06 01:49 | 28.68195 | 126.19160 | 40068 ft | 427 kts | 229° |
| 2026-05-06 01:49 | 28.64340 | 126.13999 | 40064 ft | 428 kts | 229° |
| 2026-05-06 01:50 | 28.60541 | 126.08807 | 40064 ft | 429 kts | 231° |
| 2026-05-06 01:50 | 28.56814 | 126.03493 | 40062 ft | 429 kts | 231° |